KSBY/SBY METAR and TAF weather

Enter ICAO airport designator
Station Type Date Time Source
KSBY METAR 2019/12/08 23:54 UTC NOAA

KSBY 082354Z 00000KT 10SM OVC080 05/01 A3038 RMK AO2 SLP290 T00500011 10100 20039 55010


Station Type Date Time Source
KSBY Decoded METAR 2019/12/08 23:54 UTC NOAA

SALISBURY-WICOMICO CTY REG, MD, United States (KSBY) 38-20N 075-30W 19M
Dec 08, 2019 - 06:54 PM EST / 2019.12.08 2354 UTC
Wind: Calm:0
Visibility: 10 mile(s):0
Sky conditions: overcast
Temperature: 41.0 F (5.0 C)
Dew Point: 34.0 F (1.1 C)
Relative Humidity: 75%
Pressure (altimeter): 30.38 in. Hg (1028 hPa)
Pressure tendency: 0.03 inches (1.0 hPa) lower than three hours ago
ob: KSBY 082354Z 00000KT 10SM OVC080 05/01 A3038 RMK AO2 SLP290 T00500011 10100 20039 55010
cycle: 0

Station Type Date Time Source
KSBY TAF 2019/12/08 18:42 UTC NOAA

TAF KSBY 081740Z 0818/0918 15007KT P6SM BKN250
FM090000 15003KT P6SM SCT050 BKN120
FM090300 VRB03KT P6SM OVC050
FM090600 16004KT 5SM -RA BR OVC025
FM090900 17005KT 2SM -RA BR OVC008
FM091200 17009KT 3SM -RA BR OVC008
FM091600 19012KT 5SM BR OVC012

Example: see airport list